N8351P KBDU-KAPA
Flight info
| Callsign | N8351P |
|---|---|
| Flight time | 0h 17m |
| Altitude | 11000 |
| Route | BJC BINBE |
| Aircraft | PA24/L-SDGRY/S |
Departure
| Time | 2026-05-08 05:33 |
|---|---|
| Airport | Boulder Municipal Airport (KBDU) |
Arrival
| Time | 2026-05-08 05:50 |
|---|---|
| Airport | Centennial Airport (KAPA) |
| Time | Latitude | Longitude | Altitude | Speed | Heading |
|---|---|---|---|---|---|
| 2026-05-08 05:05 | 40.03808 | -105.23079 | 5288 ft | 0 kts | 270° |
| 2026-05-08 05:23 | 40.03815 | -105.23095 | 5288 ft | 5 kts | 327° |
| 2026-05-08 05:23 | 40.03853 | -105.23108 | 5289 ft | 6 kts | 299° |
| 2026-05-08 05:24 | 40.03856 | -105.23177 | 5289 ft | 9 kts | 271° |
| 2026-05-08 05:24 | 40.03855 | -105.23261 | 5289 ft | 10 kts | 269° |
| 2026-05-08 05:24 | 40.03844 | -105.23337 | 5289 ft | 7 kts | 314° |
| 2026-05-08 05:24 | 40.03851 | -105.23340 | 5289 ft | 0 kts | 10° |
| 2026-05-08 05:31 | 40.03873 | -105.23338 | 5289 ft | 7 kts | 360° |
| 2026-05-08 05:32 | 40.03911 | -105.23317 | 5289 ft | 7 kts | 88° |
| 2026-05-08 05:32 | 40.03912 | -105.23001 | 5287 ft | 68 kts | 89° |
| 2026-05-08 05:32 | 40.03895 | -105.22246 | 5389 ft | 90 kts | 85° |
| 2026-05-08 05:32 | 40.03910 | -105.21407 | 5640 ft | 94 kts | 84° |
| 2026-05-08 05:33 | 40.03926 | -105.20539 | 5932 ft | 97 kts | 85° |
| 2026-05-08 05:33 | 40.03913 | -105.19644 | 6207 ft | 100 kts | 88° |
| 2026-05-08 05:33 | 40.03863 | -105.18745 | 6472 ft | 98 kts | 96° |
| 2026-05-08 05:33 | 40.03597 | -105.17926 | 6697 ft | 99 kts | 122° |
| 2026-05-08 05:34 | 40.03077 | -105.17314 | 6882 ft | 105 kts | 149° |
| 2026-05-08 05:34 | 40.02393 | -105.17004 | 7107 ft | 105 kts | 166° |
| 2026-05-08 05:34 | 40.01675 | -105.16791 | 7345 ft | 103 kts | 168° |
| 2026-05-08 05:34 | 40.00984 | -105.16576 | 7553 ft | 104 kts | 166° |
| 2026-05-08 05:35 | 40.00301 | -105.16214 | 7781 ft | 104 kts | 158° |
| 2026-05-08 05:35 | 39.99630 | -105.15821 | 7950 ft | 111 kts | 157° |
| 2026-05-08 05:35 | 39.98888 | -105.15380 | 8019 ft | 125 kts | 157° |
| 2026-05-08 05:35 | 39.98043 | -105.14875 | 7996 ft | 140 kts | 157° |
| 2026-05-08 05:36 | 39.97137 | -105.14334 | 7991 ft | 146 kts | 156° |
| 2026-05-08 05:36 | 39.96197 | -105.13771 | 7979 ft | 150 kts | 156° |
| 2026-05-08 05:36 | 39.95244 | -105.13196 | 7983 ft | 151 kts | 157° |
| 2026-05-08 05:36 | 39.94277 | -105.12638 | 7984 ft | 152 kts | 158° |
| 2026-05-08 05:37 | 39.93307 | -105.12084 | 7984 ft | 153 kts | 158° |
| 2026-05-08 05:37 | 39.92338 | -105.11529 | 7981 ft | 149 kts | 158° |
| 2026-05-08 05:37 | 39.91386 | -105.10976 | 7980 ft | 150 kts | 158° |
| 2026-05-08 05:37 | 39.90452 | -105.10412 | 7978 ft | 152 kts | 158° |
| 2026-05-08 05:38 | 39.89504 | -105.09833 | 7983 ft | 153 kts | 158° |
| 2026-05-08 05:38 | 39.88543 | -105.09240 | 7983 ft | 153 kts | 158° |
| 2026-05-08 05:38 | 39.87581 | -105.08650 | 7983 ft | 153 kts | 158° |
| 2026-05-08 05:38 | 39.86617 | -105.08055 | 7984 ft | 153 kts | 158° |
| 2026-05-08 05:39 | 39.85655 | -105.07462 | 7983 ft | 153 kts | 158° |
| 2026-05-08 05:39 | 39.84688 | -105.06869 | 7983 ft | 153 kts | 158° |
| 2026-05-08 05:39 | 39.83726 | -105.06280 | 7990 ft | 153 kts | 158° |
| 2026-05-08 05:39 | 39.82761 | -105.05694 | 7990 ft | 153 kts | 158° |
| 2026-05-08 05:40 | 39.81797 | -105.05101 | 7984 ft | 153 kts | 158° |
| 2026-05-08 05:40 | 39.80831 | -105.04517 | 7979 ft | 153 kts | 158° |
| 2026-05-08 05:40 | 39.79868 | -105.03929 | 7974 ft | 153 kts | 158° |
| 2026-05-08 05:40 | 39.78899 | -105.03340 | 7999 ft | 154 kts | 158° |
| 2026-05-08 05:41 | 39.77931 | -105.02754 | 7993 ft | 154 kts | 158° |
| 2026-05-08 05:41 | 39.76960 | -105.02162 | 7993 ft | 154 kts | 158° |
| 2026-05-08 05:41 | 39.75990 | -105.01573 | 7979 ft | 154 kts | 158° |
| 2026-05-08 05:41 | 39.75021 | -105.00981 | 7972 ft | 154 kts | 158° |
| 2026-05-08 05:42 | 39.74054 | -105.00390 | 7966 ft | 154 kts | 158° |
| 2026-05-08 05:42 | 39.73084 | -104.99794 | 7929 ft | 153 kts | 158° |
| 2026-05-08 05:42 | 39.72119 | -104.99199 | 7932 ft | 154 kts | 158° |
| 2026-05-08 05:42 | 39.71149 | -104.98605 | 7954 ft | 154 kts | 158° |
| 2026-05-08 05:43 | 39.70185 | -104.98010 | 7955 ft | 154 kts | 158° |
| 2026-05-08 05:43 | 39.69216 | -104.97414 | 7960 ft | 154 kts | 158° |
| 2026-05-08 05:43 | 39.68250 | -104.96823 | 7964 ft | 154 kts | 158° |
| 2026-05-08 05:43 | 39.67289 | -104.96232 | 7970 ft | 153 kts | 158° |
| 2026-05-08 05:44 | 39.66325 | -104.95640 | 7975 ft | 154 kts | 158° |
| 2026-05-08 05:44 | 39.65357 | -104.95048 | 7980 ft | 153 kts | 158° |
| 2026-05-08 05:44 | 39.64390 | -104.94455 | 7989 ft | 154 kts | 158° |
| 2026-05-08 05:44 | 39.63432 | -104.93869 | 7970 ft | 150 kts | 158° |
| 2026-05-08 05:45 | 39.62495 | -104.93292 | 7913 ft | 148 kts | 158° |
| 2026-05-08 05:45 | 39.61579 | -104.92735 | 7868 ft | 144 kts | 158° |
| 2026-05-08 05:45 | 39.60665 | -104.92190 | 7719 ft | 144 kts | 158° |
| 2026-05-08 05:45 | 39.59774 | -104.91631 | 7575 ft | 141 kts | 154° |
| 2026-05-08 05:46 | 39.58919 | -104.91064 | 7526 ft | 133 kts | 159° |
| 2026-05-08 05:46 | 39.58064 | -104.90652 | 7425 ft | 129 kts | 165° |
| 2026-05-08 05:46 | 39.57218 | -104.90330 | 7358 ft | 123 kts | 167° |
| 2026-05-08 05:46 | 39.56402 | -104.90077 | 7266 ft | 121 kts | 171° |
| 2026-05-08 05:47 | 39.55600 | -104.89870 | 7264 ft | 113 kts | 172° |
| 2026-05-08 05:47 | 39.54827 | -104.89673 | 7224 ft | 114 kts | 172° |
| 2026-05-08 05:47 | 39.54039 | -104.89494 | 7168 ft | 114 kts | 174° |
| 2026-05-08 05:47 | 39.53267 | -104.89325 | 7134 ft | 111 kts | 171° |
| 2026-05-08 05:48 | 39.52696 | -104.88692 | 7056 ft | 114 kts | 111° |
| 2026-05-08 05:48 | 39.52569 | -104.87743 | 7016 ft | 106 kts | 94° |
| 2026-05-08 05:48 | 39.52538 | -104.86813 | 6901 ft | 100 kts | 86° |
| 2026-05-08 05:48 | 39.52639 | -104.85913 | 6745 ft | 100 kts | 71° |
| 2026-05-08 05:49 | 39.52941 | -104.85163 | 6574 ft | 95 kts | 33° |
| 2026-05-08 05:49 | 39.53506 | -104.84935 | 6376 ft | 79 kts | 1° |
| 2026-05-08 05:49 | 39.54038 | -104.84948 | 6282 ft | 75 kts | 359° |
| 2026-05-08 05:49 | 39.54549 | -104.84968 | 6197 ft | 74 kts | 0° |
| 2026-05-08 05:50 | 39.55070 | -104.84994 | 6083 ft | 74 kts | 1° |
| 2026-05-08 05:50 | 39.55568 | -104.85017 | 5952 ft | 67 kts | 0° |
| 2026-05-08 05:50 | 39.55990 | -104.85037 | 5886 ft | 55 kts | 0° |
| 2026-05-08 05:50 | 39.56293 | -104.85049 | 5870 ft | 34 kts | 356° |
| 2026-05-08 05:51 | 39.56479 | -104.85056 | 5870 ft | 17 kts | 18° |
| 2026-05-08 05:51 | 39.56504 | -104.84974 | 5861 ft | 8 kts | 86° |
| 2026-05-08 05:51 | 39.56514 | -104.84923 | 5863 ft | 7 kts | 33° |
| 2026-05-08 05:51 | 39.56574 | -104.84922 | 5860 ft | 10 kts | 358° |
| 2026-05-08 05:52 | 39.56642 | -104.84925 | 5858 ft | 9 kts | 358° |
| 2026-05-08 05:52 | 39.56712 | -104.84927 | 5854 ft | 12 kts | 357° |
| 2026-05-08 05:52 | 39.56794 | -104.84931 | 5851 ft | 9 kts | 357° |
| 2026-05-08 05:52 | 39.56865 | -104.84935 | 5851 ft | 11 kts | 358° |
| 2026-05-08 05:53 | 39.56955 | -104.84939 | 5852 ft | 14 kts | 358° |
| 2026-05-08 05:53 | 39.57047 | -104.84944 | 5850 ft | 15 kts | 358° |
| 2026-05-08 05:53 | 39.57169 | -104.84949 | 5843 ft | 17 kts | 356° |
| 2026-05-08 05:53 | 39.57273 | -104.84953 | 5841 ft | 13 kts | 354° |
| 2026-05-08 05:54 | 39.57360 | -104.84959 | 5839 ft | 12 kts | 353° |
| 2026-05-08 05:54 | 39.57449 | -104.84962 | 5834 ft | 14 kts | 358° |
| 2026-05-08 05:54 | 39.57550 | -104.84966 | 5827 ft | 15 kts | 356° |
| 2026-05-08 05:54 | 39.57651 | -104.84971 | 5822 ft | 14 kts | 358° |
| 2026-05-08 05:55 | 39.57742 | -104.84975 | 5819 ft | 12 kts | 359° |
| 2026-05-08 05:55 | 39.57843 | -104.84978 | 5812 ft | 17 kts | 354° |
| 2026-05-08 05:55 | 39.57907 | -104.84937 | 5808 ft | 9 kts | 92° |
| 2026-05-08 05:55 | 39.57919 | -104.84873 | 5812 ft | 5 kts | 56° |
| 2026-05-08 05:56 | 39.57922 | -104.84857 | 5811 ft | 0 kts | 92° |